sensor_id;sensor_type;location;lat;lon;timestamp;temperature;humidity
11559;DHT22;5835;42.930;25.178;2022-07-26T00:02:00;20.10;99.90
11559;DHT22;5835;42.930;25.178;2022-07-26T00:04:28;20.20;99.90
11559;DHT22;5835;42.930;25.178;2022-07-26T00:06:56;20.20;99.90
11559;DHT22;5835;42.930;25.178;2022-07-26T00:09:25;20.10;99.90
11559;DHT22;5835;42.930;25.178;2022-07-26T00:11:53;20.10;99.90
11559;DHT22;5835;42.930;25.178;2022-07-26T00:14:21;20.20;99.90
11559;DHT22;5835;42.930;25.178;2022-07-26T00:16:48;20.10;99.90
11559;DHT22;5835;42.930;25.178;2022-07-26T00:19:16;20.10;99.90
11559;DHT22;5835;42.930;25.178;2022-07-26T00:21:44;20.10;99.90
11559;DHT22;5835;42.930;25.178;2022-07-26T00:24:11;19.90;99.90
11559;DHT22;5835;42.930;25.178;2022-07-26T00:26:40;19.90;99.90
11559;DHT22;5835;42.930;25.178;2022-07-26T00:29:08;19.90;99.90
11559;DHT22;5835;42.930;25.178;2022-07-26T00:31:36;19.90;99.90
11559;DHT22;5835;42.930;25.178;2022-07-26T00:34:03;19.90;99.90
11559;DHT22;5835;42.930;25.178;2022-07-26T00:36:31;19.80;99.90
11559;DHT22;5835;42.930;25.178;2022-07-26T00:38:59;19.70;99.90
11559;DHT22;5835;42.930;25.178;2022-07-26T00:41:26;19.50;99.90
11559;DHT22;5835;42.930;25.178;2022-07-26T00:43:59;19.40;99.90
11559;DHT22;5835;42.930;25.178;2022-07-26T00:46:26;19.20;99.90
11559;DHT22;5835;42.930;25.178;2022-07-26T00:48:54;19.20;99.90
11559;DHT22;5835;42.930;25.178;2022-07-26T00:51:22;19.20;99.90
11559;DHT22;5835;42.930;25.178;2022-07-26T00:53:50;19.30;99.90
11559;DHT22;5835;42.930;25.178;2022-07-26T00:56:18;19.40;99.90
11559;DHT22;5835;42.930;25.178;2022-07-26T00:58:45;19.50;99.90
11559;DHT22;5835;42.930;25.178;2022-07-26T01:01:15;19.50;99.90
11559;DHT22;5835;42.930;25.178;2022-07-26T01:03:43;19.50;99.90
11559;DHT22;5835;42.930;25.178;2022-07-26T01:06:10;19.50;99.90
11559;DHT22;5835;42.930;25.178;2022-07-26T01:08:41;19.50;99.90
11559;DHT22;5835;42.930;25.178;2022-07-26T01:11:09;19.40;99.90
11559;DHT22;5835;42.930;25.178;2022-07-26T01:13:37;19.40;99.90
11559;DHT22;5835;42.930;25.178;2022-07-26T01:16:11;19.40;99.90
11559;DHT22;5835;42.930;25.178;2022-07-26T01:18:40;19.30;99.90
11559;DHT22;5835;42.930;25.178;2022-07-26T01:21:10;19.20;99.90
11559;DHT22;5835;42.930;25.178;2022-07-26T01:23:39;19.20;99.90
11559;DHT22;5835;42.930;25.178;2022-07-26T01:26:07;19.10;99.90
11559;DHT22;5835;42.930;25.178;2022-07-26T01:28:36;19.20;99.90
11559;DHT22;5835;42.930;25.178;2022-07-26T01:31:04;19.20;99.90
11559;DHT22;5835;42.930;25.178;2022-07-26T01:33:33;19.20;99.90
11559;DHT22;5835;42.930;25.178;2022-07-26T01:36:01;19.10;99.90
11559;DHT22;5835;42.930;25.178;2022-07-26T01:38:28;19.00;99.90
11559;DHT22;5835;42.930;25.178;2022-07-26T01:40:57;19.00;99.90
11559;DHT22;5835;42.930;25.178;2022-07-26T01:43:25;18.90;99.90
11559;DHT22;5835;42.930;25.178;2022-07-26T01:45:52;18.80;99.90
11559;DHT22;5835;42.930;25.178;2022-07-26T01:48:20;18.80;99.90
11559;DHT22;5835;42.930;25.178;2022-07-26T01:50:48;18.60;99.90
11559;DHT22;5835;42.930;25.178;2022-07-26T01:53:15;18.30;99.90
11559;DHT22;5835;42.930;25.178;2022-07-26T01:55:43;18.20;99.90
11559;DHT22;5835;42.930;25.178;2022-07-26T01:58:12;18.10;99.90
11559;DHT22;5835;42.930;25.178;2022-07-26T02:00:40;18.30;99.90
11559;DHT22;5835;42.930;25.178;2022-07-26T02:03:07;18.40;99.90
11559;DHT22;5835;42.930;25.178;2022-07-26T02:05:35;18.50;99.90
11559;DHT22;5835;42.930;25.178;2022-07-26T02:08:03;18.70;99.90
11559;DHT22;5835;42.930;25.178;2022-07-26T02:10:31;18.70;99.90
11559;DHT22;5835;42.930;25.178;2022-07-26T02:13:14;18.70;99.90
11559;DHT22;5835;42.930;25.178;2022-07-26T02:15:41;18.20;99.90
11559;DHT22;5835;42.930;25.178;2022-07-26T02:18:09;18.20;99.90
11559;DHT22;5835;42.930;25.178;2022-07-26T02:20:36;18.10;99.90
11559;DHT22;5835;42.930;25.178;2022-07-26T02:23:04;18.20;99.90
11559;DHT22;5835;42.930;25.178;2022-07-26T02:25:32;18.40;99.90
11559;DHT22;5835;42.930;25.178;2022-07-26T02:28:17;18.40;99.90
11559;DHT22;5835;42.930;25.178;2022-07-26T02:30:46;18.30;99.90
11559;DHT22;5835;42.930;25.178;2022-07-26T02:33:14;18.30;99.90
11559;DHT22;5835;42.930;25.178;2022-07-26T02:35:42;18.30;99.90
11559;DHT22;5835;42.930;25.178;2022-07-26T02:38:11;18.20;99.90
11559;DHT22;5835;42.930;25.178;2022-07-26T02:40:40;18.10;99.90
11559;DHT22;5835;42.930;25.178;2022-07-26T02:43:08;18.10;99.90
11559;DHT22;5835;42.930;25.178;2022-07-26T02:45:38;18.10;99.90
11559;DHT22;5835;42.930;25.178;2022-07-26T02:48:06;18.10;99.90
11559;DHT22;5835;42.930;25.178;2022-07-26T02:50:34;18.10;99.90
11559;DHT22;5835;42.930;25.178;2022-07-26T02:53:01;18.20;99.90
11559;DHT22;5835;42.930;25.178;2022-07-26T02:55:29;18.20;99.90
11559;DHT22;5835;42.930;25.178;2022-07-26T02:57:57;18.20;99.90
11559;DHT22;5835;42.930;25.178;2022-07-26T03:00:25;18.50;99.90
11559;DHT22;5835;42.930;25.178;2022-07-26T03:02:54;18.80;99.90
11559;DHT22;5835;42.930;25.178;2022-07-26T03:05:22;18.90;99.90
11559;DHT22;5835;42.930;25.178;2022-07-26T03:07:50;18.90;99.90
11559;DHT22;5835;42.930;25.178;2022-07-26T03:10:17;19.00;99.90
11559;DHT22;5835;42.930;25.178;2022-07-26T03:12:45;19.10;99.90
11559;DHT22;5835;42.930;25.178;2022-07-26T03:15:13;19.20;99.90
11559;DHT22;5835;42.930;25.178;2022-07-26T03:17:40;19.10;99.90
11559;DHT22;5835;42.930;25.178;2022-07-26T03:20:10;19.10;99.90
11559;DHT22;5835;42.930;25.178;2022-07-26T03:22:40;19.00;99.90
11559;DHT22;5835;42.930;25.178;2022-07-26T03:25:08;19.10;99.90
11559;DHT22;5835;42.930;25.178;2022-07-26T03:27:35;19.10;99.90
11559;DHT22;5835;42.930;25.178;2022-07-26T03:30:03;19.30;99.90
11559;DHT22;5835;42.930;25.178;2022-07-26T03:32:31;19.30;99.90
11559;DHT22;5835;42.930;25.178;2022-07-26T03:34:59;19.50;99.90
11559;DHT22;5835;42.930;25.178;2022-07-26T03:37:28;19.60;99.90
11559;DHT22;5835;42.930;25.178;2022-07-26T03:39:56;19.50;99.90
11559;DHT22;5835;42.930;25.178;2022-07-26T03:42:23;19.50;99.90
11559;DHT22;5835;42.930;25.178;2022-07-26T03:44:51;19.70;99.90
11559;DHT22;5835;42.930;25.178;2022-07-26T03:47:18;19.80;99.90
11559;DHT22;5835;42.930;25.178;2022-07-26T03:49:46;19.60;99.90
11559;DHT22;5835;42.930;25.178;2022-07-26T03:52:14;19.50;99.90
11559;DHT22;5835;42.930;25.178;2022-07-26T03:54:43;19.50;99.90
11559;DHT22;5835;42.930;25.178;2022-07-26T03:57:10;19.60;99.90
11559;DHT22;5835;42.930;25.178;2022-07-26T03:59:37;19.70;99.90
11559;DHT22;5835;42.930;25.178;2022-07-26T04:02:04;19.50;99.90
11559;DHT22;5835;42.930;25.178;2022-07-26T04:04:32;19.40;99.90
11559;DHT22;5835;42.930;25.178;2022-07-26T04:07:02;19.30;99.90
11559;DHT22;5835;42.930;25.178;2022-07-26T04:09:30;19.30;99.90
11559;DHT22;5835;42.930;25.178;2022-07-26T04:11:59;19.20;99.90
11559;DHT22;5835;42.930;25.178;2022-07-26T04:14:27;19.40;99.90
11559;DHT22;5835;42.930;25.178;2022-07-26T04:16:55;19.40;99.90
11559;DHT22;5835;42.930;25.178;2022-07-26T04:19:22;19.40;99.90
11559;DHT22;5835;42.930;25.178;2022-07-26T04:21:50;19.40;99.90
11559;DHT22;5835;42.930;25.178;2022-07-26T04:24:17;19.40;99.90
11559;DHT22;5835;42.930;25.178;2022-07-26T04:26:45;19.50;99.90
11559;DHT22;5835;42.930;25.178;2022-07-26T04:29:14;19.70;99.90
11559;DHT22;5835;42.930;25.178;2022-07-26T04:31:41;19.80;99.90
11559;DHT22;5835;42.930;25.178;2022-07-26T04:34:09;19.80;99.90
11559;DHT22;5835;42.930;25.178;2022-07-26T04:36:36;19.80;99.90
11559;DHT22;5835;42.930;25.178;2022-07-26T04:39:04;20.00;99.90
11559;DHT22;5835;42.930;25.178;2022-07-26T04:41:31;20.30;99.90
11559;DHT22;5835;42.930;25.178;2022-07-26T04:44:01;20.30;99.90
11559;DHT22;5835;42.930;25.178;2022-07-26T04:46:31;20.50;99.90
11559;DHT22;5835;42.930;25.178;2022-07-26T04:48:58;20.50;99.90
11559;DHT22;5835;42.930;25.178;2022-07-26T04:51:26;20.50;99.90
11559;DHT22;5835;42.930;25.178;2022-07-26T04:53:53;20.60;99.90
11559;DHT22;5835;42.930;25.178;2022-07-26T04:56:21;20.60;99.90
11559;DHT22;5835;42.930;25.178;2022-07-26T04:58:48;20.40;99.90
11559;DHT22;5835;42.930;25.178;2022-07-26T05:01:16;20.40;99.90
11559;DHT22;5835;42.930;25.178;2022-07-26T05:03:45;20.50;99.90
11559;DHT22;5835;42.930;25.178;2022-07-26T05:06:12;20.50;99.90
11559;DHT22;5835;42.930;25.178;2022-07-26T05:08:40;20.50;99.90
11559;DHT22;5835;42.930;25.178;2022-07-26T05:11:08;20.50;99.90
11559;DHT22;5835;42.930;25.178;2022-07-26T05:13:50;20.60;99.90
11559;DHT22;5835;42.930;25.178;2022-07-26T05:16:18;20.40;99.90
11559;DHT22;5835;42.930;25.178;2022-07-26T05:18:47;20.50;99.90
11559;DHT22;5835;42.930;25.178;2022-07-26T05:21:15;20.70;99.90
11559;DHT22;5835;42.930;25.178;2022-07-26T05:23:43;20.90;99.90
11559;DHT22;5835;42.930;25.178;2022-07-26T05:26:10;21.00;99.90
11559;DHT22;5835;42.930;25.178;2022-07-26T05:28:38;21.10;99.90
11559;DHT22;5835;42.930;25.178;2022-07-26T05:31:06;21.20;99.90
11559;DHT22;5835;42.930;25.178;2022-07-26T05:33:34;21.30;99.90
11559;DHT22;5835;42.930;25.178;2022-07-26T05:36:03;21.30;99.90
11559;DHT22;5835;42.930;25.178;2022-07-26T05:38:31;21.40;99.90
11559;DHT22;5835;42.930;25.178;2022-07-26T05:40:59;21.50;99.90
11559;DHT22;5835;42.930;25.178;2022-07-26T05:43:27;21.60;99.90
11559;DHT22;5835;42.930;25.178;2022-07-26T05:45:55;21.90;99.90
11559;DHT22;5835;42.930;25.178;2022-07-26T05:48:23;21.90;99.90
11559;DHT22;5835;42.930;25.178;2022-07-26T05:50:51;21.90;99.90
11559;DHT22;5835;42.930;25.178;2022-07-26T05:53:20;22.10;99.90
11559;DHT22;5835;42.930;25.178;2022-07-26T05:55:48;22.10;99.90
11559;DHT22;5835;42.930;25.178;2022-07-26T05:58:15;22.10;99.90
11559;DHT22;5835;42.930;25.178;2022-07-26T06:00:43;22.10;99.90
11559;DHT22;5835;42.930;25.178;2022-07-26T06:03:10;22.20;99.90
11559;DHT22;5835;42.930;25.178;2022-07-26T06:05:52;22.40;99.90
11559;DHT22;5835;42.930;25.178;2022-07-26T06:08:23;22.70;99.90
11559;DHT22;5835;42.930;25.178;2022-07-26T06:10:51;22.70;99.90
11559;DHT22;5835;42.930;25.178;2022-07-26T06:13:19;22.80;99.90
11559;DHT22;5835;42.930;25.178;2022-07-26T06:15:47;22.90;99.90
11559;DHT22;5835;42.930;25.178;2022-07-26T06:18:15;23.10;99.90
11559;DHT22;5835;42.930;25.178;2022-07-26T06:20:44;23.30;99.90
11559;DHT22;5835;42.930;25.178;2022-07-26T06:23:12;23.40;99.90
11559;DHT22;5835;42.930;25.178;2022-07-26T06:25:42;23.70;99.90
11559;DHT22;5835;42.930;25.178;2022-07-26T06:28:10;23.80;99.90
11559;DHT22;5835;42.930;25.178;2022-07-26T06:30:37;23.90;99.90
11559;DHT22;5835;42.930;25.178;2022-07-26T06:33:05;24.10;99.90
11559;DHT22;5835;42.930;25.178;2022-07-26T06:35:35;24.20;99.90
11559;DHT22;5835;42.930;25.178;2022-07-26T06:38:04;24.40;99.90
11559;DHT22;5835;42.930;25.178;2022-07-26T06:40:33;24.60;99.90
11559;DHT22;5835;42.930;25.178;2022-07-26T06:43:02;24.70;99.90
11559;DHT22;5835;42.930;25.178;2022-07-26T06:45:30;25.00;99.90
11559;DHT22;5835;42.930;25.178;2022-07-26T06:47:58;25.00;99.90
11559;DHT22;5835;42.930;25.178;2022-07-26T06:50:26;25.30;99.90
11559;DHT22;5835;42.930;25.178;2022-07-26T06:52:54;25.40;99.90
11559;DHT22;5835;42.930;25.178;2022-07-26T06:55:22;25.60;99.90
11559;DHT22;5835;42.930;25.178;2022-07-26T06:57:49;25.90;99.90
11559;DHT22;5835;42.930;25.178;2022-07-26T07:00:19;26.00;99.90
11559;DHT22;5835;42.930;25.178;2022-07-26T07:02:46;26.30;99.90
11559;DHT22;5835;42.930;25.178;2022-07-26T07:05:15;26.60;99.90
11559;DHT22;5835;42.930;25.178;2022-07-26T07:07:42;26.90;99.90
11559;DHT22;5835;42.930;25.178;2022-07-26T07:10:10;26.60;99.90
11559;DHT22;5835;42.930;25.178;2022-07-26T07:12:37;26.70;99.90
11559;DHT22;5835;42.930;25.178;2022-07-26T07:15:07;27.00;99.90
11559;DHT22;5835;42.930;25.178;2022-07-26T07:17:36;27.10;99.90
11559;DHT22;5835;42.930;25.178;2022-07-26T07:20:05;27.60;99.90
11559;DHT22;5835;42.930;25.178;2022-07-26T07:22:33;27.60;99.90
11559;DHT22;5835;42.930;25.178;2022-07-26T07:25:00;27.60;99.90
11559;DHT22;5835;42.930;25.178;2022-07-26T07:27:28;27.90;99.90
11559;DHT22;5835;42.930;25.178;2022-07-26T07:29:55;28.00;99.90
11559;DHT22;5835;42.930;25.178;2022-07-26T07:32:23;28.10;99.90
11559;DHT22;5835;42.930;25.178;2022-07-26T07:34:52;28.30;99.90
11559;DHT22;5835;42.930;25.178;2022-07-26T07:37:19;28.50;99.90
11559;DHT22;5835;42.930;25.178;2022-07-26T07:39:47;28.60;99.90
11559;DHT22;5835;42.930;25.178;2022-07-26T07:42:15;28.50;99.90
11559;DHT22;5835;42.930;25.178;2022-07-26T07:44:44;28.70;99.90
11559;DHT22;5835;42.930;25.178;2022-07-26T07:47:11;28.90;99.90
11559;DHT22;5835;42.930;25.178;2022-07-26T07:49:39;29.30;99.90
11559;DHT22;5835;42.930;25.178;2022-07-26T07:52:08;29.10;99.90
11559;DHT22;5835;42.930;25.178;2022-07-26T07:54:36;29.30;99.90
11559;DHT22;5835;42.930;25.178;2022-07-26T07:57:04;29.80;99.90
11559;DHT22;5835;42.930;25.178;2022-07-26T07:59:31;30.00;99.90
11559;DHT22;5835;42.930;25.178;2022-07-26T08:01:59;30.10;97.10
11559;DHT22;5835;42.930;25.178;2022-07-26T08:04:27;30.20;97.50
11559;DHT22;5835;42.930;25.178;2022-07-26T08:06:55;30.40;93.50
11559;DHT22;5835;42.930;25.178;2022-07-26T08:09:24;30.40;94.90
11559;DHT22;5835;42.930;25.178;2022-07-26T08:11:52;30.60;95.80
11559;DHT22;5835;42.930;25.178;2022-07-26T08:14:20;31.10;95.90
11559;DHT22;5835;42.930;25.178;2022-07-26T08:16:49;31.60;90.80
11559;DHT22;5835;42.930;25.178;2022-07-26T08:19:17;31.80;91.10
11559;DHT22;5835;42.930;25.178;2022-07-26T08:21:44;31.70;93.60
11559;DHT22;5835;42.930;25.178;2022-07-26T08:24:12;31.80;92.20
11559;DHT22;5835;42.930;25.178;2022-07-26T08:26:41;31.60;86.90
11559;DHT22;5835;42.930;25.178;2022-07-26T08:29:09;31.60;85.50
11559;DHT22;5835;42.930;25.178;2022-07-26T08:31:36;31.80;75.00
11559;DHT22;5835;42.930;25.178;2022-07-26T08:34:04;31.80;72.30
11559;DHT22;5835;42.930;25.178;2022-07-26T08:36:32;32.00;70.50
11559;DHT22;5835;42.930;25.178;2022-07-26T08:38:59;31.90;63.50
11559;DHT22;5835;42.930;25.178;2022-07-26T08:41:28;31.80;66.10
11559;DHT22;5835;42.930;25.178;2022-07-26T08:44:05;32.10;63.40
11559;DHT22;5835;42.930;25.178;2022-07-26T08:46:36;32.00;65.00
11559;DHT22;5835;42.930;25.178;2022-07-26T08:49:09;32.10;65.10
11559;DHT22;5835;42.930;25.178;2022-07-26T08:51:39;32.00;62.90
11559;DHT22;5835;42.930;25.178;2022-07-26T08:54:10;32.10;65.20
11559;DHT22;5835;42.930;25.178;2022-07-26T08:56:41;32.60;68.40
11559;DHT22;5835;42.930;25.178;2022-07-26T08:59:17;33.40;66.40
11559;DHT22;5835;42.930;25.178;2022-07-26T09:01:52;32.90;59.70
11559;DHT22;5835;42.930;25.178;2022-07-26T09:04:21;32.80;61.70
11559;DHT22;5835;42.930;25.178;2022-07-26T09:07:01;32.80;64.20
11559;DHT22;5835;42.930;25.178;2022-07-26T09:09:31;32.90;61.70
11559;DHT22;5835;42.930;25.178;2022-07-26T09:12:13;32.60;61.40
11559;DHT22;5835;42.930;25.178;2022-07-26T09:14:42;32.70;62.50
11559;DHT22;5835;42.930;25.178;2022-07-26T09:17:12;33.10;61.90
11559;DHT22;5835;42.930;25.178;2022-07-26T09:19:40;33.30;63.80
11559;DHT22;5835;42.930;25.178;2022-07-26T09:22:10;33.90;60.10
11559;DHT22;5835;42.930;25.178;2022-07-26T09:24:42;34.40;58.60
11559;DHT22;5835;42.930;25.178;2022-07-26T09:27:11;34.80;60.80
11559;DHT22;5835;42.930;25.178;2022-07-26T09:29:48;34.50;56.30
11559;DHT22;5835;42.930;25.178;2022-07-26T09:32:18;34.20;58.60
11559;DHT22;5835;42.930;25.178;2022-07-26T09:34:47;34.20;59.50
11559;DHT22;5835;42.930;25.178;2022-07-26T09:37:16;34.20;54.70
11559;DHT22;5835;42.930;25.178;2022-07-26T09:39:55;34.20;58.20
11559;DHT22;5835;42.930;25.178;2022-07-26T09:42:23;34.30;58.10
11559;DHT22;5835;42.930;25.178;2022-07-26T09:44:54;34.50;58.50
11559;DHT22;5835;42.930;25.178;2022-07-26T09:47:21;35.40;58.60
11559;DHT22;5835;42.930;25.178;2022-07-26T09:49:49;35.10;54.00
11559;DHT22;5835;42.930;25.178;2022-07-26T09:52:34;34.60;55.40
11559;DHT22;5835;42.930;25.178;2022-07-26T09:55:05;35.10;58.30
11559;DHT22;5835;42.930;25.178;2022-07-26T09:57:33;34.30;53.70
11559;DHT22;5835;42.930;25.178;2022-07-26T10:00:04;33.60;54.10
11559;DHT22;5835;42.930;25.178;2022-07-26T10:02:32;34.00;54.60
11559;DHT22;5835;42.930;25.178;2022-07-26T10:05:00;34.00;53.60
11559;DHT22;5835;42.930;25.178;2022-07-26T10:07:28;34.40;53.60
11559;DHT22;5835;42.930;25.178;2022-07-26T10:09:59;34.20;52.60
11559;DHT22;5835;42.930;25.178;2022-07-26T10:12:30;34.20;54.80
11559;DHT22;5835;42.930;25.178;2022-07-26T10:14:59;35.60;55.70
11559;DHT22;5835;42.930;25.178;2022-07-26T10:17:45;36.10;54.20
11559;DHT22;5835;42.930;25.178;2022-07-26T10:20:38;36.40;56.20
11559;DHT22;5835;42.930;25.178;2022-07-26T10:23:34;36.70;52.10
11559;DHT22;5835;42.930;25.178;2022-07-26T10:26:02;36.70;52.30
11559;DHT22;5835;42.930;25.178;2022-07-26T10:28:31;36.10;46.90
11559;DHT22;5835;42.930;25.178;2022-07-26T10:31:22;36.50;47.40
11559;DHT22;5835;42.930;25.178;2022-07-26T10:33:53;35.70;48.70
11559;DHT22;5835;42.930;25.178;2022-07-26T10:36:22;36.70;50.70
11559;DHT22;5835;42.930;25.178;2022-07-26T10:39:03;36.50;48.20
11559;DHT22;5835;42.930;25.178;2022-07-26T10:41:33;36.00;47.00
11559;DHT22;5835;42.930;25.178;2022-07-26T10:44:16;35.90;46.30
11559;DHT22;5835;42.930;25.178;2022-07-26T10:46:58;35.70;45.50
11559;DHT22;5835;42.930;25.178;2022-07-26T10:49:30;36.10;46.70
11559;DHT22;5835;42.930;25.178;2022-07-26T10:52:06;36.00;46.30
11559;DHT22;5835;42.930;25.178;2022-07-26T10:57:42;36.20;46.00
11559;DHT22;5835;42.930;25.178;2022-07-26T11:00:15;37.00;46.50
11559;DHT22;5835;42.930;25.178;2022-07-26T11:02:46;37.90;48.10
11559;DHT22;5835;42.930;25.178;2022-07-26T11:05:16;38.70;47.70
11559;DHT22;5835;42.930;25.178;2022-07-26T11:08:05;39.00;43.80
11559;DHT22;5835;42.930;25.178;2022-07-26T11:10:38;39.10;47.90
11559;DHT22;5835;42.930;25.178;2022-07-26T11:13:09;39.20;44.90
11559;DHT22;5835;42.930;25.178;2022-07-26T11:15:38;39.50;47.60
11559;DHT22;5835;42.930;25.178;2022-07-26T11:18:13;39.70;44.90
11559;DHT22;5835;42.930;25.178;2022-07-26T11:20:47;39.60;39.40
11559;DHT22;5835;42.930;25.178;2022-07-26T11:23:29;40.00;41.30
11559;DHT22;5835;42.930;25.178;2022-07-26T11:26:08;39.20;38.00
11559;DHT22;5835;42.930;25.178;2022-07-26T11:28:43;39.10;40.70
11559;DHT22;5835;42.930;25.178;2022-07-26T11:31:11;39.70;44.70
11559;DHT22;5835;42.930;25.178;2022-07-26T11:33:41;40.20;42.50
11559;DHT22;5835;42.930;25.178;2022-07-26T11:36:12;40.30;41.10
11559;DHT22;5835;42.930;25.178;2022-07-26T11:38:44;39.60;44.20
11559;DHT22;5835;42.930;25.178;2022-07-26T11:41:11;40.70;40.70
11559;DHT22;5835;42.930;25.178;2022-07-26T11:43:40;40.60;37.30
11559;DHT22;5835;42.930;25.178;2022-07-26T11:46:10;39.50;37.30
11559;DHT22;5835;42.930;25.178;2022-07-26T11:48:44;39.50;38.30
11559;DHT22;5835;42.930;25.178;2022-07-26T11:51:15;39.90;39.40
11559;DHT22;5835;42.930;25.178;2022-07-26T11:53:43;40.80;39.10
11559;DHT22;5835;42.930;25.178;2022-07-26T11:56:15;40.00;35.70
11559;DHT22;5835;42.930;25.178;2022-07-26T11:58:47;40.30;36.60
11559;DHT22;5835;42.930;25.178;2022-07-26T12:01:18;40.10;38.30
11559;DHT22;5835;42.930;25.178;2022-07-26T12:03:48;39.00;38.80
11559;DHT22;5835;42.930;25.178;2022-07-26T12:06:19;38.90;38.80
11559;DHT22;5835;42.930;25.178;2022-07-26T12:08:49;38.20;37.80
11559;DHT22;5835;42.930;25.178;2022-07-26T12:11:18;37.60;40.30
11559;DHT22;5835;42.930;25.178;2022-07-26T12:13:55;37.20;39.00
11559;DHT22;5835;42.930;25.178;2022-07-26T12:16:40;37.10;39.40
11559;DHT22;5835;42.930;25.178;2022-07-26T12:19:21;37.20;39.30
11559;DHT22;5835;42.930;25.178;2022-07-26T12:21:53;37.40;40.20
11559;DHT22;5835;42.930;25.178;2022-07-26T12:24:37;37.40;39.20
11559;DHT22;5835;42.930;25.178;2022-07-26T12:27:07;37.70;39.30
11559;DHT22;5835;42.930;25.178;2022-07-26T12:29:35;37.40;39.40
11559;DHT22;5835;42.930;25.178;2022-07-26T12:32:05;38.00;40.30
11559;DHT22;5835;42.930;25.178;2022-07-26T12:34:33;38.20;39.60
11559;DHT22;5835;42.930;25.178;2022-07-26T12:37:14;38.00;39.10
11559;DHT22;5835;42.930;25.178;2022-07-26T12:39:57;38.80;38.40
11559;DHT22;5835;42.930;25.178;2022-07-26T12:42:28;37.60;36.70
11559;DHT22;5835;42.930;25.178;2022-07-26T12:44:57;38.40;37.20
11559;DHT22;5835;42.930;25.178;2022-07-26T12:47:25;38.00;36.40
11559;DHT22;5835;42.930;25.178;2022-07-26T12:49:53;38.10;37.70
11559;DHT22;5835;42.930;25.178;2022-07-26T12:52:23;38.30;39.50
11559;DHT22;5835;42.930;25.178;2022-07-26T12:54:51;39.00;42.30
11559;DHT22;5835;42.930;25.178;2022-07-26T12:57:20;38.60;42.00
11559;DHT22;5835;42.930;25.178;2022-07-26T12:59:48;38.60;40.80
11559;DHT22;5835;42.930;25.178;2022-07-26T13:02:16;38.70;41.70
11559;DHT22;5835;42.930;25.178;2022-07-26T13:04:44;38.40;42.10
11559;DHT22;5835;42.930;25.178;2022-07-26T13:07:12;38.60;40.90
11559;DHT22;5835;42.930;25.178;2022-07-26T13:09:45;37.60;41.00
11559;DHT22;5835;42.930;25.178;2022-07-26T13:12:15;37.10;41.20
11559;DHT22;5835;42.930;25.178;2022-07-26T13:14:43;36.80;40.00
11559;DHT22;5835;42.930;25.178;2022-07-26T13:17:11;36.30;41.20
11559;DHT22;5835;42.930;25.178;2022-07-26T13:19:39;36.90;40.90
11559;DHT22;5835;42.930;25.178;2022-07-26T13:22:07;37.40;40.20
11559;DHT22;5835;42.930;25.178;2022-07-26T13:24:36;37.80;40.50
11559;DHT22;5835;42.930;25.178;2022-07-26T13:27:06;37.60;42.50
11559;DHT22;5835;42.930;25.178;2022-07-26T13:29:35;38.10;42.10
11559;DHT22;5835;42.930;25.178;2022-07-26T13:32:03;38.40;41.60
11559;DHT22;5835;42.930;25.178;2022-07-26T13:34:32;38.50;40.20
11559;DHT22;5835;42.930;25.178;2022-07-26T13:37:00;39.00;40.00
11559;DHT22;5835;42.930;25.178;2022-07-26T13:39:28;38.70;38.80
11559;DHT22;5835;42.930;25.178;2022-07-26T13:41:55;38.00;40.30
11559;DHT22;5835;42.930;25.178;2022-07-26T13:44:28;38.60;41.80
11559;DHT22;5835;42.930;25.178;2022-07-26T13:46:55;39.40;40.70
11559;DHT22;5835;42.930;25.178;2022-07-26T13:49:23;39.90;40.40
11559;DHT22;5835;42.930;25.178;2022-07-26T13:51:50;40.40;38.60
11559;DHT22;5835;42.930;25.178;2022-07-26T13:54:26;41.00;39.90
11559;DHT22;5835;42.930;25.178;2022-07-26T13:56:54;41.00;37.40
11559;DHT22;5835;42.930;25.178;2022-07-26T13:59:22;41.20;36.70
11559;DHT22;5835;42.930;25.178;2022-07-26T14:01:52;41.40;35.50
11559;DHT22;5835;42.930;25.178;2022-07-26T14:04:21;41.80;35.90
11559;DHT22;5835;42.930;25.178;2022-07-26T14:06:49;40.50;36.70
11559;DHT22;5835;42.930;25.178;2022-07-26T14:09:18;39.70;35.80
11559;DHT22;5835;42.930;25.178;2022-07-26T14:11:46;39.70;37.20
11559;DHT22;5835;42.930;25.178;2022-07-26T14:14:14;40.00;35.30
11559;DHT22;5835;42.930;25.178;2022-07-26T14:16:42;40.10;36.10
11559;DHT22;5835;42.930;25.178;2022-07-26T14:19:11;40.00;35.70
11559;DHT22;5835;42.930;25.178;2022-07-26T14:21:39;39.60;35.10
11559;DHT22;5835;42.930;25.178;2022-07-26T14:24:07;39.40;36.90
11559;DHT22;5835;42.930;25.178;2022-07-26T14:26:35;39.70;37.40
11559;DHT22;5835;42.930;25.178;2022-07-26T14:29:03;39.50;37.60
11559;DHT22;5835;42.930;25.178;2022-07-26T14:31:30;39.50;36.10
11559;DHT22;5835;42.930;25.178;2022-07-26T14:33:58;39.50;35.30
11559;DHT22;5835;42.930;25.178;2022-07-26T14:36:28;38.20;36.30
11559;DHT22;5835;42.930;25.178;2022-07-26T14:38:56;38.40;36.00
11559;DHT22;5835;42.930;25.178;2022-07-26T14:41:23;39.30;36.20
11559;DHT22;5835;42.930;25.178;2022-07-26T14:43:51;39.40;35.70
11559;DHT22;5835;42.930;25.178;2022-07-26T14:46:18;39.00;35.70
11559;DHT22;5835;42.930;25.178;2022-07-26T14:48:46;39.10;35.60
11559;DHT22;5835;42.930;25.178;2022-07-26T14:51:14;39.70;35.30
11559;DHT22;5835;42.930;25.178;2022-07-26T14:53:43;39.60;35.30
11559;DHT22;5835;42.930;25.178;2022-07-26T14:56:11;40.00;35.90
11559;DHT22;5835;42.930;25.178;2022-07-26T14:58:38;40.30;35.20
11559;DHT22;5835;42.930;25.178;2022-07-26T15:01:06;40.30;34.60
11559;DHT22;5835;42.930;25.178;2022-07-26T15:03:34;40.00;35.80
11559;DHT22;5835;42.930;25.178;2022-07-26T15:06:01;39.70;34.90
11559;DHT22;5835;42.930;25.178;2022-07-26T15:08:29;39.50;36.00
11559;DHT22;5835;42.930;25.178;2022-07-26T15:10:58;39.20;35.80
11559;DHT22;5835;42.930;25.178;2022-07-26T15:13:26;39.20;36.80
11559;DHT22;5835;42.930;25.178;2022-07-26T15:15:53;39.20;37.60
11559;DHT22;5835;42.930;25.178;2022-07-26T15:18:21;39.30;36.50
11559;DHT22;5835;42.930;25.178;2022-07-26T15:20:49;39.80;34.30
11559;DHT22;5835;42.930;25.178;2022-07-26T15:23:17;40.30;33.90
11559;DHT22;5835;42.930;25.178;2022-07-26T15:25:45;40.70;33.30
11559;DHT22;5835;42.930;25.178;2022-07-26T15:28:15;40.10;34.50
11559;DHT22;5835;42.930;25.178;2022-07-26T15:30:43;39.70;35.30
11559;DHT22;5835;42.930;25.178;2022-07-26T15:33:11;39.70;35.40
11559;DHT22;5835;42.930;25.178;2022-07-26T15:35:39;39.90;35.80
11559;DHT22;5835;42.930;25.178;2022-07-26T15:38:07;39.50;36.10
11559;DHT22;5835;42.930;25.178;2022-07-26T15:40:34;38.90;35.40
11559;DHT22;5835;42.930;25.178;2022-07-26T15:43:02;39.20;36.50
11559;DHT22;5835;42.930;25.178;2022-07-26T15:45:31;39.30;35.50
11559;DHT22;5835;42.930;25.178;2022-07-26T15:47:59;38.70;35.40